createdAt,value
2022-08-05T00:00:21.616Z,15.38
2022-08-05T00:02:52.284Z,15.60
2022-08-05T00:06:02.985Z,15.79
2022-08-05T00:08:35.283Z,15.78
2022-08-05T00:11:04.828Z,15.65
2022-08-05T00:13:53.065Z,15.52
2022-08-05T00:16:35.646Z,15.35
2022-08-05T00:19:06.805Z,15.20
2022-08-05T00:21:36.259Z,15.02
2022-08-05T00:24:10.575Z,14.77
2022-08-05T00:26:43.409Z,14.39
2022-08-05T00:29:25.745Z,14.04
2022-08-05T00:32:13.435Z,13.74
2022-08-05T00:35:03.902Z,13.28
2022-08-05T00:37:52.675Z,12.99
2022-08-05T00:40:28.093Z,12.80
2022-08-05T00:43:07.685Z,12.65
2022-08-05T00:45:43.146Z,12.54
2022-08-05T00:48:15.243Z,12.61
2022-08-05T00:50:47.843Z,12.77
2022-08-05T00:54:00.439Z,12.92
2022-08-05T00:56:09.500Z,13.05
2022-08-05T00:58:42.499Z,13.09
2022-08-05T01:01:16.625Z,13.02
2022-08-05T01:04:14.275Z,12.93
2022-08-05T01:06:48.482Z,12.87
2022-08-05T01:09:20.120Z,12.70
2022-08-05T01:11:56.105Z,12.58
2022-08-05T01:14:37.252Z,12.48
2022-08-05T01:17:22.780Z,12.43
2022-08-05T01:20:27.577Z,12.47
2022-08-05T01:23:22.901Z,12.54
2022-08-05T01:26:26.315Z,12.57
2022-08-05T01:29:09.815Z,12.55
2022-08-05T01:31:56.508Z,12.49
2022-08-05T01:34:37.546Z,12.48
2022-08-05T01:37:44.287Z,12.43
2022-08-05T01:40:17.768Z,12.41
2022-08-05T01:42:50.522Z,12.38
2022-08-05T01:45:22.061Z,12.30
2022-08-05T01:47:55.573Z,12.23
2022-08-05T01:50:54.807Z,12.16
2022-08-05T01:53:58.025Z,12.09
2022-08-05T01:58:13.737Z,12.03
2022-08-05T01:59:18.066Z,12.01
2022-08-05T02:01:54.746Z,11.96
2022-08-05T02:04:30.228Z,11.92
2022-08-05T02:07:03.524Z,11.94
2022-08-05T02:09:35.804Z,11.93
2022-08-05T02:12:54.986Z,11.96
2022-08-05T02:15:43.286Z,12.00
2022-08-05T02:18:34.990Z,12.05
2022-08-05T02:21:15.671Z,12.07
2022-08-05T02:23:50.236Z,12.08
2022-08-05T02:26:29.534Z,12.07
2022-08-05T02:28:59.541Z,12.02
2022-08-05T02:31:35.797Z,11.96
2022-08-05T02:34:15.297Z,11.91
2022-08-05T02:36:58.764Z,11.85
2022-08-05T02:39:38.245Z,11.79
2022-08-05T02:42:12.195Z,11.72
2022-08-05T02:44:57.434Z,11.66
2022-08-05T02:47:58.381Z,11.60
2022-08-05T02:50:18.915Z,11.56
2022-08-05T02:52:49.470Z,11.50
2022-08-05T02:55:54.570Z,11.39
2022-08-05T02:58:13.300Z,11.26
2022-08-05T03:00:46.565Z,11.21
2022-08-05T03:03:23.467Z,11.16
2022-08-05T03:06:56.940Z,11.09
2022-08-05T03:08:44.274Z,11.05
2022-08-05T03:11:54.625Z,11.04
2022-08-05T03:14:14.715Z,11.01
2022-08-05T03:16:43.994Z,10.96
2022-08-05T03:19:20.344Z,10.94
2022-08-05T03:22:02.466Z,10.93
2022-08-05T03:24:34.268Z,10.91
2022-08-05T03:27:06.693Z,10.88
2022-08-05T03:29:44.738Z,10.86
2022-08-05T03:32:17.046Z,10.82
2022-08-05T03:34:51.346Z,10.80
2022-08-05T03:37:22.414Z,10.76
2022-08-05T03:40:01.425Z,10.73
2022-08-05T03:42:41.520Z,10.70
2022-08-05T03:45:21.984Z,10.69
2022-08-05T03:47:56.935Z,10.75
2022-08-05T03:50:49.525Z,10.76
2022-08-05T03:55:06.866Z,10.74
2022-08-05T03:56:49.967Z,10.70
2022-08-05T03:59:29.186Z,10.64
2022-08-05T04:02:39.182Z,10.61
2022-08-05T04:05:11.546Z,10.55
2022-08-05T04:07:53.013Z,10.52
2022-08-05T04:10:33.337Z,10.45
2022-08-05T04:13:09.401Z,10.40
2022-08-05T04:15:39.029Z,10.35
2022-08-05T04:18:26.229Z,10.32
2022-08-05T04:20:59.770Z,10.31
2022-08-05T04:24:05.082Z,10.27
2022-08-05T04:26:20.926Z,10.26
2022-08-05T04:28:51.136Z,10.30
2022-08-05T04:31:22.109Z,10.33
2022-08-05T04:34:31.175Z,10.30
2022-08-05T04:36:50.275Z,10.27
2022-08-05T04:39:23.176Z,10.26
2022-08-05T04:41:52.836Z,10.23
2022-08-05T04:44:29.216Z,10.17
2022-08-05T04:47:09.483Z,10.14
2022-08-05T04:50:02.976Z,10.13
2022-08-05T04:52:33.359Z,10.12
2022-08-05T04:55:14.209Z,10.10
2022-08-05T04:57:54.154Z,10.12
2022-08-05T05:00:24.026Z,10.12
2022-08-05T05:02:54.071Z,10.11
2022-08-05T05:05:28.455Z,10.09
2022-08-05T05:08:14.109Z,10.05
2022-08-05T05:10:57.132Z,10.00
2022-08-05T05:13:26.276Z,9.96
2022-08-05T05:16:02.222Z,9.94
2022-08-05T05:18:35.345Z,9.89
2022-08-05T05:21:06.064Z,9.85
2022-08-05T05:23:39.029Z,9.82
2022-08-05T05:26:28.541Z,9.81
2022-08-05T05:29:02.592Z,9.80
2022-08-05T05:31:46.161Z,9.81
2022-08-05T05:34:17.317Z,9.76
2022-08-05T05:36:51.228Z,9.73
2022-08-05T05:39:20.766Z,9.69
2022-08-05T05:41:54.409Z,9.65
2022-08-05T05:44:35.706Z,9.61
2022-08-05T05:47:13.456Z,9.58
2022-08-05T05:50:01.562Z,9.58
2022-08-05T05:52:38.058Z,9.60
2022-08-05T05:55:16.909Z,9.62
2022-08-05T05:57:52.428Z,9.64
2022-08-05T06:00:27.708Z,9.61
2022-08-05T06:03:40.757Z,9.62
2022-08-05T06:05:55.518Z,9.61
2022-08-05T06:08:31.851Z,9.60
2022-08-05T06:11:02.991Z,9.61
2022-08-05T06:13:40.830Z,9.61
2022-08-05T06:16:29.541Z,9.64
2022-08-05T06:19:05.750Z,9.67
2022-08-05T06:21:38.786Z,9.72
2022-08-05T06:24:12.786Z,9.74
2022-08-05T06:26:52.012Z,9.77
2022-08-05T06:29:52.008Z,9.81
2022-08-05T06:32:26.262Z,9.82
2022-08-05T06:34:59.665Z,9.81
2022-08-05T06:37:57.963Z,9.78
2022-08-05T06:40:27.829Z,9.71
2022-08-05T06:42:57.769Z,9.63
2022-08-05T06:45:44.862Z,9.55
2022-08-05T06:48:47.365Z,9.51
2022-08-05T06:51:09.594Z,9.48
2022-08-05T06:53:39.515Z,9.46
2022-08-05T06:56:25.847Z,9.42
2022-08-05T06:58:57.317Z,9.41
2022-08-05T07:01:27.582Z,9.40
2022-08-05T07:04:03.157Z,9.35
2022-08-05T07:06:32.780Z,9.26
2022-08-05T07:09:04.382Z,9.24
2022-08-05T07:11:37.124Z,9.20
2022-08-05T07:14:30.059Z,9.14
2022-08-05T07:18:08.338Z,9.11
2022-08-05T07:20:32.169Z,9.11
2022-08-05T07:22:45.707Z,9.13
2022-08-05T07:25:54.433Z,9.14
2022-08-05T07:28:09.598Z,9.12
2022-08-05T07:30:41.298Z,9.11
2022-08-05T07:33:16.687Z,9.12
2022-08-05T07:36:01.558Z,9.09
2022-08-05T07:38:43.350Z,9.02
2022-08-05T07:42:13.933Z,8.95
2022-08-05T07:44:19.046Z,8.90
2022-08-05T07:46:50.698Z,8.89
2022-08-05T07:49:21.560Z,8.89
2022-08-05T07:51:54.223Z,8.91
2022-08-05T07:54:31.148Z,8.94
2022-08-05T07:57:16.927Z,9.00
2022-08-05T07:59:54.731Z,8.97
2022-08-05T08:03:15.420Z,8.90
2022-08-05T08:05:20.108Z,8.82
2022-08-05T08:08:00.230Z,8.77
2022-08-05T08:10:30.803Z,8.73
2022-08-05T08:13:00.739Z,8.68
2022-08-05T08:16:33.433Z,8.62
2022-08-05T08:18:21.245Z,8.56
2022-08-05T08:21:02.448Z,8.56
2022-08-05T08:24:01.606Z,8.60
2022-08-05T08:26:26.847Z,8.62
2022-08-05T08:29:45.515Z,8.60
2022-08-05T08:31:53.269Z,8.57
2022-08-05T08:34:29.896Z,8.52
2022-08-05T08:37:04.813Z,8.49
2022-08-05T08:39:37.488Z,8.45
2022-08-05T08:42:33.815Z,8.41
2022-08-05T08:45:17.714Z,8.32
2022-08-05T08:48:07.566Z,8.27
2022-08-05T08:51:22.091Z,8.28
2022-08-05T08:53:44.454Z,8.31
2022-08-05T08:56:14.980Z,8.35
2022-08-05T08:58:47.957Z,8.35
2022-08-05T09:01:20.034Z,8.36
2022-08-05T09:03:57.551Z,8.36
2022-08-05T09:06:30.784Z,8.36
2022-08-05T09:09:04.138Z,8.33
2022-08-05T09:11:52.007Z,8.28
2022-08-05T09:14:58.770Z,8.24
2022-08-05T09:17:41.354Z,8.20
2022-08-05T09:20:05.959Z,8.16
2022-08-05T09:23:19.964Z,8.13
2022-08-05T09:26:06.650Z,8.10
2022-08-05T09:28:41.534Z,8.07
2022-08-05T09:31:44.111Z,8.02
2022-08-05T09:34:13.153Z,8.02
2022-08-05T09:36:54.382Z,7.99
2022-08-05T09:39:39.482Z,8.02
2022-08-05T09:42:28.047Z,7.95
2022-08-05T09:45:17.468Z,7.89
2022-08-05T09:47:55.958Z,7.83
2022-08-05T09:50:43.986Z,7.77
2022-08-05T09:53:22.822Z,7.72
2022-08-05T09:56:05.154Z,7.68
2022-08-05T09:58:42.353Z,7.65
2022-08-05T10:01:32.069Z,7.62
2022-08-05T10:04:13.598Z,7.55
2022-08-05T10:07:01.466Z,7.54
2022-08-05T10:09:45.121Z,7.50
2022-08-05T10:12:30.052Z,7.47
2022-08-05T10:15:44.917Z,7.42
2022-08-05T10:18:23.884Z,7.36
2022-08-05T10:20:58.671Z,7.31
2022-08-05T10:23:59.107Z,7.30
2022-08-05T10:26:32.604Z,7.30
2022-08-05T10:29:03.632Z,7.28
2022-08-05T10:32:53.122Z,7.28
2022-08-05T10:34:25.766Z,7.28
2022-08-05T10:36:59.369Z,7.26
2022-08-05T10:39:59.194Z,7.29
2022-08-05T10:42:33.600Z,7.30
2022-08-05T10:45:20.891Z,7.31
2022-08-05T10:48:31.422Z,7.30
2022-08-05T10:51:23.196Z,7.28
2022-08-05T10:54:23.423Z,7.20
2022-08-05T10:56:58.047Z,7.14
2022-08-05T11:00:02.606Z,7.10
2022-08-05T11:02:37.620Z,7.11
2022-08-05T11:05:14.421Z,7.10
2022-08-05T11:08:34.088Z,7.14
2022-08-05T11:11:52.474Z,7.12
2022-08-05T11:14:57.428Z,7.09
2022-08-05T11:17:59.654Z,7.06
2022-08-05T11:20:44.317Z,6.99
2022-08-05T11:24:04.886Z,6.91
2022-08-05T11:26:28.590Z,6.84
2022-08-05T11:29:12.604Z,6.79
2022-08-05T11:31:58.204Z,6.77
2022-08-05T11:34:47.647Z,6.74
2022-08-05T11:38:29.891Z,6.77
2022-08-05T11:41:12.692Z,6.79
2022-08-05T11:44:40.174Z,6.79
2022-08-05T11:47:12.072Z,6.78
2022-08-05T11:49:49.694Z,6.76
2022-08-05T11:52:31.367Z,6.73
2022-08-05T11:55:07.624Z,6.71
2022-08-05T11:58:09.111Z,6.70
2022-08-05T12:00:38.199Z,6.68
2022-08-05T12:03:31.678Z,6.69
2022-08-05T12:06:09.896Z,6.71
2022-08-05T12:08:51.216Z,6.73
2022-08-05T12:11:40.430Z,6.74
2022-08-05T12:14:11.256Z,6.74
2022-08-05T12:16:45.565Z,6.73
2022-08-05T12:20:27.016Z,6.74
2022-08-05T12:22:09.655Z,6.76
2022-08-05T12:24:49.663Z,6.76
2022-08-05T12:27:32.780Z,6.73
2022-08-05T12:30:15.409Z,6.72
2022-08-05T12:32:56.349Z,6.70
2022-08-05T12:35:39.408Z,6.72
2022-08-05T12:38:10.911Z,6.76
2022-08-05T12:40:43.488Z,6.79
2022-08-05T12:43:20.798Z,6.81
2022-08-05T12:45:57.871Z,6.80
2022-08-05T12:48:33.005Z,6.80
2022-08-05T12:52:10.061Z,6.82
2022-08-05T12:54:16.539Z,6.82
2022-08-05T12:56:52.244Z,6.77
2022-08-05T13:00:08.748Z,6.72
2022-08-05T13:02:30.755Z,6.76
2022-08-05T13:05:00.509Z,6.83
2022-08-05T13:07:57.648Z,6.88
2022-08-05T13:10:20.678Z,6.90
2022-08-05T13:12:51.023Z,6.92
2022-08-05T13:15:35.824Z,6.94
2022-08-05T13:18:11.567Z,6.97
2022-08-05T13:20:50.824Z,7.06
2022-08-05T13:23:22.250Z,7.15
2022-08-05T13:25:59.419Z,7.27
2022-08-05T13:28:32.387Z,7.43
2022-08-05T13:31:11.118Z,7.56
2022-08-05T13:34:22.683Z,7.67
2022-08-05T13:36:34.409Z,7.76
2022-08-05T13:39:08.380Z,7.80
2022-08-05T13:41:54.068Z,7.75
2022-08-05T13:44:25.823Z,7.71
2022-08-05T13:47:08.535Z,7.74
2022-08-05T13:49:45.217Z,7.80
2022-08-05T13:52:29.083Z,7.85
2022-08-05T13:55:01.214Z,7.90
2022-08-05T13:57:51.158Z,7.95
2022-08-05T14:00:27.097Z,8.00
2022-08-05T14:03:01.083Z,8.09
2022-08-05T14:06:04.539Z,8.14
2022-08-05T14:08:28.070Z,8.22
2022-08-05T14:11:20.591Z,8.28
2022-08-05T14:13:54.988Z,8.37
2022-08-05T14:16:27.453Z,8.44
2022-08-05T14:18:56.736Z,8.53
2022-08-05T14:22:09.874Z,8.61
2022-08-05T14:24:15.072Z,8.66
2022-08-05T14:27:08.380Z,8.73
2022-08-05T14:29:38.490Z,8.79
2022-08-05T14:32:14.261Z,8.83
2022-08-05T14:34:46.751Z,8.91
2022-08-05T14:37:16.173Z,9.02
2022-08-05T14:39:50.098Z,9.10
2022-08-05T14:42:26.242Z,9.19
2022-08-05T14:44:56.668Z,9.30
2022-08-05T14:48:03.644Z,9.43
2022-08-05T14:50:19.013Z,9.57
2022-08-05T14:52:56.885Z,9.73
2022-08-05T14:55:39.592Z,9.94
2022-08-05T14:58:13.810Z,10.19
2022-08-05T15:00:58.946Z,10.40
2022-08-05T15:03:34.137Z,10.58
2022-08-05T15:06:15.014Z,10.73
2022-08-05T15:09:01.279Z,10.83
2022-08-05T15:11:53.254Z,10.89
2022-08-05T15:14:35.050Z,10.93
2022-08-05T15:17:45.058Z,10.91
2022-08-05T15:20:01.964Z,10.88
2022-08-05T15:22:31.163Z,10.91
2022-08-05T15:25:00.559Z,10.95
2022-08-05T15:27:42.941Z,10.99
2022-08-05T15:30:21.788Z,11.03
2022-08-05T15:32:52.274Z,11.11
2022-08-05T15:35:21.986Z,11.16
2022-08-05T15:38:32.281Z,11.22
2022-08-05T15:41:02.781Z,11.29
2022-08-05T15:43:31.203Z,11.37
2022-08-05T15:46:15.774Z,11.48
2022-08-05T15:48:52.880Z,11.57
2022-08-05T15:52:10.383Z,11.66
2022-08-05T15:54:19.874Z,11.82
2022-08-05T15:57:07.566Z,11.97
2022-08-05T15:59:38.406Z,12.11
2022-08-05T16:02:14.786Z,12.22
2022-08-05T16:04:49.832Z,12.39
2022-08-05T16:07:19.263Z,12.54
2022-08-05T16:09:52.091Z,12.72
2022-08-05T16:12:23.674Z,12.91
2022-08-05T16:14:53.162Z,13.13
2022-08-05T16:17:22.552Z,13.33
2022-08-05T16:20:12.138Z,13.53
2022-08-05T16:22:41.839Z,13.66
2022-08-05T16:25:11.724Z,13.76
2022-08-05T16:28:01.063Z,13.83
2022-08-05T16:30:33.399Z,13.89
2022-08-05T16:33:03.369Z,14.01
2022-08-05T16:35:34.620Z,14.10
2022-08-05T16:38:24.326Z,14.17
2022-08-05T16:41:00.309Z,14.21
2022-08-05T16:43:36.470Z,14.32
2022-08-05T16:46:23.505Z,14.49
2022-08-05T16:48:55.666Z,14.72
2022-08-05T16:51:30.801Z,14.87
2022-08-05T16:54:16.238Z,14.98
2022-08-05T16:56:52.145Z,15.11
2022-08-05T16:59:21.797Z,15.23
2022-08-05T17:01:53.630Z,15.39
2022-08-05T17:04:27.821Z,15.48
2022-08-05T17:07:03.305Z,15.53
2022-08-05T17:09:38.935Z,15.59
2022-08-05T17:12:50.410Z,15.66
2022-08-05T17:15:15.624Z,15.75
2022-08-05T17:17:55.073Z,15.90
2022-08-05T17:20:25.201Z,16.01
2022-08-05T17:22:55.908Z,16.12
2022-08-05T17:25:39.508Z,16.22
2022-08-05T17:28:10.171Z,16.29
2022-08-05T17:30:50.440Z,16.35
2022-08-05T17:33:23.167Z,16.43
2022-08-05T17:36:08.783Z,16.49
2022-08-05T17:38:39.709Z,16.59
2022-08-05T17:41:11.554Z,16.73
2022-08-05T17:43:59.875Z,16.90
2022-08-05T17:46:29.155Z,17.08
2022-08-05T17:48:58.455Z,17.26
2022-08-05T17:51:27.850Z,17.36
2022-08-05T17:54:09.641Z,17.40
2022-08-05T17:56:39.291Z,17.47
2022-08-05T17:59:08.705Z,17.53
2022-08-05T18:01:42.707Z,17.50
2022-08-05T18:04:21.457Z,17.58
2022-08-05T18:07:01.153Z,17.63
2022-08-05T18:09:59.501Z,17.75
2022-08-05T18:12:24.496Z,17.94
2022-08-05T18:14:54.589Z,18.08
2022-08-05T18:18:00.240Z,18.19
2022-08-05T18:20:15.193Z,18.24
2022-08-05T18:22:54.187Z,18.32
2022-08-05T18:25:25.313Z,18.46
2022-08-05T18:28:05.224Z,18.63
2022-08-05T18:30:35.499Z,18.87
2022-08-05T18:33:13.515Z,19.05
2022-08-05T18:36:00.639Z,19.15
2022-08-05T18:38:42.332Z,19.25
2022-08-05T18:41:53.739Z,19.23
2022-08-05T18:44:06.185Z,19.25
2022-08-05T18:46:37.070Z,19.36
2022-08-05T18:49:30.802Z,19.49
2022-08-05T18:52:35.643Z,19.63
2022-08-05T18:55:10.432Z,19.74
2022-08-05T18:57:53.410Z,19.83
2022-08-05T19:00:30.733Z,19.96
2022-08-05T19:03:04.767Z,19.82
2022-08-05T19:06:11.531Z,19.73
2022-08-05T19:08:30.432Z,19.56
2022-08-05T19:11:04.614Z,19.24
2022-08-05T19:13:36.926Z,18.95
2022-08-05T19:16:24.449Z,18.58
2022-08-05T19:18:57.130Z,18.23
2022-08-05T19:21:29.627Z,18.02
2022-08-05T19:24:12.725Z,17.98
2022-08-05T19:26:54.059Z,18.02
2022-08-05T19:29:36.500Z,17.97
2022-08-05T19:32:11.677Z,17.93
2022-08-05T19:34:42.006Z,17.94
2022-08-05T19:37:30.066Z,17.92
2022-08-05T19:40:16.782Z,17.93
2022-08-05T19:43:05.004Z,17.94
2022-08-05T19:45:36.437Z,17.87
2022-08-05T19:48:07.333Z,17.95
2022-08-05T19:50:45.672Z,17.97
2022-08-05T19:53:14.956Z,18.06
2022-08-05T19:56:14.384Z,18.03
2022-08-05T19:58:53.509Z,17.90
2022-08-05T20:01:28.332Z,17.73
2022-08-05T20:03:59.231Z,17.70
2022-08-05T20:06:46.516Z,17.71
2022-08-05T20:09:16.267Z,17.64
2022-08-05T20:11:47.991Z,17.62
2022-08-05T20:14:26.907Z,17.49
2022-08-05T20:16:56.973Z,17.39
2022-08-05T20:19:36.362Z,17.36
2022-08-05T20:22:10.833Z,17.24
2022-08-05T20:24:41.590Z,17.02
2022-08-05T20:27:11.808Z,16.87
2022-08-05T20:29:40.897Z,16.86
2022-08-05T20:32:10.427Z,16.85
2022-08-05T20:34:42.061Z,16.89
2022-08-05T20:37:17.741Z,16.85
2022-08-05T20:40:00.412Z,16.58
2022-08-05T20:42:29.964Z,16.44
2022-08-05T20:45:01.506Z,16.50
2022-08-05T20:47:32.699Z,16.50
2022-08-05T20:50:03.429Z,16.65
2022-08-05T20:52:36.987Z,16.82
2022-08-05T20:55:56.865Z,17.03
2022-08-05T20:58:00.481Z,17.25
2022-08-05T21:00:49.543Z,17.38
2022-08-05T21:03:20.540Z,17.46
2022-08-05T21:05:55.408Z,17.45
2022-08-05T21:08:41.354Z,17.37
2022-08-05T21:12:06.568Z,17.42
2022-08-05T21:14:03.568Z,17.59
2022-08-05T21:16:34.942Z,17.65
2022-08-05T21:19:05.193Z,17.61
2022-08-05T21:21:39.501Z,17.61
2022-08-05T21:24:15.393Z,17.64
2022-08-05T21:26:53.586Z,17.78
2022-08-05T21:29:32.033Z,17.89
2022-08-05T21:32:04.076Z,17.90
2022-08-05T21:34:35.531Z,17.94
2022-08-05T21:37:05.959Z,17.95
2022-08-05T21:39:40.683Z,17.92
2022-08-05T21:42:43.814Z,17.90
2022-08-05T21:45:00.811Z,17.88
2022-08-05T21:47:54.836Z,17.87
2022-08-05T21:50:20.837Z,17.70
2022-08-05T21:52:51.265Z,17.67
2022-08-05T21:56:01.576Z,17.56
2022-08-05T21:58:10.242Z,17.47
2022-08-05T22:00:41.411Z,17.18
2022-08-05T22:03:48.957Z,16.86
2022-08-05T22:06:10.368Z,16.79
2022-08-05T22:08:42.798Z,16.78
2022-08-05T22:11:15.569Z,16.77
2022-08-05T22:14:06.260Z,16.78
2022-08-05T22:16:51.753Z,16.80
2022-08-05T22:20:02.225Z,16.68
2022-08-05T22:22:11.938Z,16.76
2022-08-05T22:24:59.744Z,16.76
2022-08-05T22:28:04.920Z,16.78
2022-08-05T22:30:35.940Z,16.71
2022-08-05T22:33:15.252Z,16.79
2022-08-05T22:35:49.174Z,16.93
2022-08-05T22:38:19.893Z,17.03
2022-08-05T22:40:55.040Z,17.08
2022-08-05T22:43:37.015Z,17.17
2022-08-05T22:46:13.156Z,17.19
2022-08-05T22:48:44.075Z,17.18
2022-08-05T22:51:16.055Z,17.17
2022-08-05T22:53:55.154Z,17.11
2022-08-05T22:56:30.054Z,17.02
2022-08-05T22:59:03.242Z,16.98
2022-08-05T23:02:06.167Z,16.98
2022-08-05T23:04:37.885Z,16.95
2022-08-05T23:07:08.216Z,16.95
2022-08-05T23:09:58.117Z,16.94
2022-08-05T23:12:27.573Z,16.84
2022-08-05T23:14:58.082Z,16.83
2022-08-05T23:17:34.711Z,16.86
2022-08-05T23:20:17.442Z,16.79
2022-08-05T23:22:49.990Z,16.84
2022-08-05T23:25:52.294Z,16.93
2022-08-05T23:28:18.075Z,17.00
2022-08-05T23:30:53.077Z,16.95
2022-08-05T23:34:02.662Z,16.98
2022-08-05T23:36:14.135Z,17.05
2022-08-05T23:38:44.814Z,17.13
2022-08-05T23:41:14.676Z,17.23
2022-08-05T23:44:06.017Z,17.29
2022-08-05T23:46:34.049Z,17.32
2022-08-05T23:49:15.932Z,17.35
2022-08-05T23:52:05.690Z,17.40
2022-08-05T23:54:38.518Z,17.43
2022-08-05T23:57:09.336Z,17.48
